sensor_id;sensor_type;location;lat;lon;timestamp;pressure;altitude;pressure_sealevel;temperature
18782;BMP180;9519;51.890;8.970;2023-04-25T00:02:47;98288.00;;;5.70
18782;BMP180;9519;51.890;8.970;2023-04-25T00:07:51;98288.00;;;5.70
18782;BMP180;9519;51.890;8.970;2023-04-25T00:12:53;98279.00;;;5.60
18782;BMP180;9519;51.890;8.970;2023-04-25T00:17:55;98266.00;;;5.60
18782;BMP180;9519;51.890;8.970;2023-04-25T00:22:59;98246.00;;;5.60
18782;BMP180;9519;51.890;8.970;2023-04-25T00:28:01;98270.00;;;5.60
18782;BMP180;9519;51.890;8.970;2023-04-25T00:33:03;98264.00;;;5.60
18782;BMP180;9519;51.890;8.970;2023-04-25T00:38:07;98278.00;;;5.60
18782;BMP180;9519;51.890;8.970;2023-04-25T00:43:09;98273.00;;;5.50
18782;BMP180;9519;51.890;8.970;2023-04-25T00:48:13;98234.00;;;5.50
18782;BMP180;9519;51.890;8.970;2023-04-25T00:53:17;98260.00;;;5.60
18782;BMP180;9519;51.890;8.970;2023-04-25T00:58:20;98300.00;;;5.60
18782;BMP180;9519;51.890;8.970;2023-04-25T01:03:23;98287.00;;;5.60
18782;BMP180;9519;51.890;8.970;2023-04-25T01:08:27;98244.00;;;5.60
18782;BMP180;9519;51.890;8.970;2023-04-25T01:13:29;98258.00;;;5.50
18782;BMP180;9519;51.890;8.970;2023-04-25T01:18:32;98253.00;;;5.50
18782;BMP180;9519;51.890;8.970;2023-04-25T01:23:36;98240.00;;;5.40
18782;BMP180;9519;51.890;8.970;2023-04-25T01:28:40;98244.00;;;5.30
18782;BMP180;9519;51.890;8.970;2023-04-25T01:33:42;98230.00;;;5.20
18782;BMP180;9519;51.890;8.970;2023-04-25T01:38:46;98200.00;;;5.20
18782;BMP180;9519;51.890;8.970;2023-04-25T01:43:48;98223.00;;;5.10
18782;BMP180;9519;51.890;8.970;2023-04-25T01:48:50;98236.00;;;5.00
18782;BMP180;9519;51.890;8.970;2023-04-25T01:53:56;98236.00;;;5.00
18782;BMP180;9519;51.890;8.970;2023-04-25T01:58:59;98235.00;;;4.90
18782;BMP180;9519;51.890;8.970;2023-04-25T02:04:01;98245.00;;;5.00
18782;BMP180;9519;51.890;8.970;2023-04-25T02:09:04;98234.00;;;5.00
18782;BMP180;9519;51.890;8.970;2023-04-25T02:14:06;98262.00;;;5.00
18782;BMP180;9519;51.890;8.970;2023-04-25T02:19:08;98200.00;;;5.00
18782;BMP180;9519;51.890;8.970;2023-04-25T02:24:12;98232.00;;;5.00
18782;BMP180;9519;51.890;8.970;2023-04-25T02:29:14;98248.00;;;4.90
18782;BMP180;9519;51.890;8.970;2023-04-25T02:34:16;98224.00;;;4.90
18782;BMP180;9519;51.890;8.970;2023-04-25T02:39:20;98229.00;;;4.90
18782;BMP180;9519;51.890;8.970;2023-04-25T02:44:22;98226.00;;;4.90
18782;BMP180;9519;51.890;8.970;2023-04-25T02:49:24;98230.00;;;4.90
18782;BMP180;9519;51.890;8.970;2023-04-25T02:54:28;98195.00;;;4.90
18782;BMP180;9519;51.890;8.970;2023-04-25T02:59:30;98226.00;;;4.90
18782;BMP180;9519;51.890;8.970;2023-04-25T03:04:32;98265.00;;;5.00
18782;BMP180;9519;51.890;8.970;2023-04-25T03:09:36;98251.00;;;5.00
18782;BMP180;9519;51.890;8.970;2023-04-25T03:14:38;98232.00;;;5.00
18782;BMP180;9519;51.890;8.970;2023-04-25T03:19:40;98254.00;;;5.00
18782;BMP180;9519;51.890;8.970;2023-04-25T03:24:44;98263.00;;;5.10
18782;BMP180;9519;51.890;8.970;2023-04-25T03:29:46;98252.00;;;5.00
18782;BMP180;9519;51.890;8.970;2023-04-25T03:34:48;98259.00;;;4.90
18782;BMP180;9519;51.890;8.970;2023-04-25T03:39:51;98189.00;;;4.80
18782;BMP180;9519;51.890;8.970;2023-04-25T03:44:53;98263.00;;;4.80
18782;BMP180;9519;51.890;8.970;2023-04-25T03:49:55;98272.00;;;4.80
18782;BMP180;9519;51.890;8.970;2023-04-25T03:54:59;98232.00;;;4.80
18782;BMP180;9519;51.890;8.970;2023-04-25T04:00:01;98285.00;;;4.80
18782;BMP180;9519;51.890;8.970;2023-04-25T04:05:05;98257.00;;;4.70
18782;BMP180;9519;51.890;8.970;2023-04-25T04:10:10;98304.00;;;4.80
18782;BMP180;9519;51.890;8.970;2023-04-25T04:15:12;98308.00;;;4.80
18782;BMP180;9519;51.890;8.970;2023-04-25T04:20:14;98320.00;;;4.70
18782;BMP180;9519;51.890;8.970;2023-04-25T04:25:18;98312.00;;;4.70
18782;BMP180;9519;51.890;8.970;2023-04-25T04:30:22;98314.00;;;4.70
18782;BMP180;9519;51.890;8.970;2023-04-25T04:35:26;98325.00;;;4.80
18782;BMP180;9519;51.890;8.970;2023-04-25T04:40:29;98314.00;;;4.80
18782;BMP180;9519;51.890;8.970;2023-04-25T04:45:32;98339.00;;;4.80
18782;BMP180;9519;51.890;8.970;2023-04-25T04:50:35;98332.00;;;4.80
18782;BMP180;9519;51.890;8.970;2023-04-25T04:55:38;98325.00;;;4.80
18782;BMP180;9519;51.890;8.970;2023-04-25T05:00:41;98361.00;;;4.80
18782;BMP180;9519;51.890;8.970;2023-04-25T05:05:44;98350.00;;;4.80
18782;BMP180;9519;51.890;8.970;2023-04-25T05:10:47;98361.00;;;4.80
18782;BMP180;9519;51.890;8.970;2023-04-25T05:15:49;98357.00;;;4.80
18782;BMP180;9519;51.890;8.970;2023-04-25T05:20:51;98368.00;;;4.70
18782;BMP180;9519;51.890;8.970;2023-04-25T05:25:55;98371.00;;;4.70
18782;BMP180;9519;51.890;8.970;2023-04-25T05:30:58;98354.00;;;4.70
18782;BMP180;9519;51.890;8.970;2023-04-25T05:36:00;98373.00;;;4.70
18782;BMP180;9519;51.890;8.970;2023-04-25T05:41:03;98246.00;;;4.70
18782;BMP180;9519;51.890;8.970;2023-04-25T05:46:05;98352.00;;;4.70
18782;BMP180;9519;51.890;8.970;2023-04-25T05:51:07;98324.00;;;4.70
18782;BMP180;9519;51.890;8.970;2023-04-25T05:56:11;98394.00;;;4.80
18782;BMP180;9519;51.890;8.970;2023-04-25T06:01:14;98418.00;;;4.80
18782;BMP180;9519;51.890;8.970;2023-04-25T06:06:16;98426.00;;;4.90
18782;BMP180;9519;51.890;8.970;2023-04-25T06:11:20;98424.00;;;4.90
18782;BMP180;9519;51.890;8.970;2023-04-25T06:16:22;98432.00;;;5.00
18782;BMP180;9519;51.890;8.970;2023-04-25T06:21:26;98425.00;;;5.00
18782;BMP180;9519;51.890;8.970;2023-04-25T06:26:30;98425.00;;;5.00
18782;BMP180;9519;51.890;8.970;2023-04-25T06:31:32;98419.00;;;5.10
18782;BMP180;9519;51.890;8.970;2023-04-25T06:36:34;98439.00;;;5.10
18782;BMP180;9519;51.890;8.970;2023-04-25T06:41:38;98398.00;;;5.10
18782;BMP180;9519;51.890;8.970;2023-04-25T06:46:40;98440.00;;;5.10
18782;BMP180;9519;51.890;8.970;2023-04-25T06:51:42;98465.00;;;5.20
18782;BMP180;9519;51.890;8.970;2023-04-25T06:56:46;98477.00;;;5.30
18782;BMP180;9519;51.890;8.970;2023-04-25T07:01:48;98476.00;;;5.30
18782;BMP180;9519;51.890;8.970;2023-04-25T07:06:50;98486.00;;;5.40
18782;BMP180;9519;51.890;8.970;2023-04-25T07:11:53;98470.00;;;5.40
18782;BMP180;9519;51.890;8.970;2023-04-25T07:16:55;98495.00;;;5.50
18782;BMP180;9519;51.890;8.970;2023-04-25T07:21:58;98422.00;;;5.30
18782;BMP180;9519;51.890;8.970;2023-04-25T07:27:01;98443.00;;;5.30
18782;BMP180;9519;51.890;8.970;2023-04-25T07:32:04;98467.00;;;5.30
18782;BMP180;9519;51.890;8.970;2023-04-25T07:37:06;98431.00;;;5.30
18782;BMP180;9519;51.890;8.970;2023-04-25T07:42:10;98459.00;;;5.40
18782;BMP180;9519;51.890;8.970;2023-04-25T07:47:12;98463.00;;;5.50
18782;BMP180;9519;51.890;8.970;2023-04-25T07:52:14;98500.00;;;5.60
18782;BMP180;9519;51.890;8.970;2023-04-25T07:57:18;98474.00;;;5.60
18782;BMP180;9519;51.890;8.970;2023-04-25T08:02:21;98508.00;;;5.60
18782;BMP180;9519;51.890;8.970;2023-04-25T08:07:23;98494.00;;;5.60
18782;BMP180;9519;51.890;8.970;2023-04-25T08:12:27;98508.00;;;5.70
18782;BMP180;9519;51.890;8.970;2023-04-25T08:17:29;98529.00;;;5.70
18782;BMP180;9519;51.890;8.970;2023-04-25T08:22:31;98550.00;;;5.80
18782;BMP180;9519;51.890;8.970;2023-04-25T08:27:36;98551.00;;;5.90
18782;BMP180;9519;51.890;8.970;2023-04-25T08:32:38;98552.00;;;5.90
18782;BMP180;9519;51.890;8.970;2023-04-25T08:37:40;98607.00;;;6.20
18782;BMP180;9519;51.890;8.970;2023-04-25T08:42:43;98578.00;;;6.30
18782;BMP180;9519;51.890;8.970;2023-04-25T08:47:46;98661.00;;;6.40
18782;BMP180;9519;51.890;8.970;2023-04-25T08:52:53;98628.00;;;6.40
18782;BMP180;9519;51.890;8.970;2023-04-25T08:57:59;98645.00;;;6.50
18782;BMP180;9519;51.890;8.970;2023-04-25T09:03:03;98667.00;;;6.60
18782;BMP180;9519;51.890;8.970;2023-04-25T09:08:04;98643.00;;;6.60
18782;BMP180;9519;51.890;8.970;2023-04-25T09:13:12;98674.00;;;6.70
18782;BMP180;9519;51.890;8.970;2023-04-25T09:18:23;98698.00;;;6.90
18782;BMP180;9519;51.890;8.970;2023-04-25T09:23:26;98679.00;;;6.90
18782;BMP180;9519;51.890;8.970;2023-04-25T09:28:30;98664.00;;;6.90
18782;BMP180;9519;51.890;8.970;2023-04-25T09:33:33;98695.00;;;7.00
18782;BMP180;9519;51.890;8.970;2023-04-25T09:38:42;98710.00;;;7.10
18782;BMP180;9519;51.890;8.970;2023-04-25T09:43:49;98706.00;;;7.20
18782;BMP180;9519;51.890;8.970;2023-04-25T09:48:52;98695.00;;;7.20
18782;BMP180;9519;51.890;8.970;2023-04-25T09:53:54;98670.00;;;7.30
18782;BMP180;9519;51.890;8.970;2023-04-25T09:58:58;98738.00;;;7.40
18782;BMP180;9519;51.890;8.970;2023-04-25T10:04:02;98740.00;;;7.50
18782;BMP180;9519;51.890;8.970;2023-04-25T10:09:07;98716.00;;;7.40
18782;BMP180;9519;51.890;8.970;2023-04-25T10:14:12;98711.00;;;7.40
18782;BMP180;9519;51.890;8.970;2023-04-25T10:19:15;98730.00;;;7.50
18782;BMP180;9519;51.890;8.970;2023-04-25T10:24:19;98709.00;;;7.30
18782;BMP180;9519;51.890;8.970;2023-04-25T10:29:27;98707.00;;;7.00
18782;BMP180;9519;51.890;8.970;2023-04-25T10:34:41;98734.00;;;6.90
18782;BMP180;9519;51.890;8.970;2023-04-25T10:39:43;98683.00;;;6.80
18782;BMP180;9519;51.890;8.970;2023-04-25T10:45:05;98706.00;;;6.70
18782;BMP180;9519;51.890;8.970;2023-04-25T10:50:09;98709.00;;;6.70
18782;BMP180;9519;51.890;8.970;2023-04-25T10:55:11;98701.00;;;6.80
18782;BMP180;9519;51.890;8.970;2023-04-25T11:00:17;98759.00;;;6.90
18782;BMP180;9519;51.890;8.970;2023-04-25T11:05:30;98756.00;;;6.90
18782;BMP180;9519;51.890;8.970;2023-04-25T11:10:33;98724.00;;;6.90
18782;BMP180;9519;51.890;8.970;2023-04-25T11:15:38;98749.00;;;6.90
18782;BMP180;9519;51.890;8.970;2023-04-25T11:20:43;98736.00;;;6.90
18782;BMP180;9519;51.890;8.970;2023-04-25T11:25:45;98730.00;;;6.90
18782;BMP180;9519;51.890;8.970;2023-04-25T11:30:49;98728.00;;;7.00
18782;BMP180;9519;51.890;8.970;2023-04-25T11:35:53;98765.00;;;7.20
18782;BMP180;9519;51.890;8.970;2023-04-25T11:40:57;98795.00;;;7.30
18782;BMP180;9519;51.890;8.970;2023-04-25T11:46:00;98768.00;;;7.50
18782;BMP180;9519;51.890;8.970;2023-04-25T11:51:04;98780.00;;;7.60
18782;BMP180;9519;51.890;8.970;2023-04-25T11:56:10;98771.00;;;7.50
18782;BMP180;9519;51.890;8.970;2023-04-25T12:01:28;98803.00;;;7.50
18782;BMP180;9519;51.890;8.970;2023-04-25T12:06:31;98805.00;;;7.40
18782;BMP180;9519;51.890;8.970;2023-04-25T12:11:40;98827.00;;;7.20
18782;BMP180;9519;51.890;8.970;2023-04-25T12:16:48;98793.00;;;6.90
18782;BMP180;9519;51.890;8.970;2023-04-25T12:21:50;98754.00;;;6.80
18782;BMP180;9519;51.890;8.970;2023-04-25T12:26:59;98807.00;;;6.90
18782;BMP180;9519;51.890;8.970;2023-04-25T12:32:04;98786.00;;;6.90
18782;BMP180;9519;51.890;8.970;2023-04-25T12:37:06;98808.00;;;7.00
18782;BMP180;9519;51.890;8.970;2023-04-25T12:42:08;98816.00;;;7.00
18782;BMP180;9519;51.890;8.970;2023-04-25T12:47:14;98807.00;;;6.90
18782;BMP180;9519;51.890;8.970;2023-04-25T12:52:16;98808.00;;;6.90
18782;BMP180;9519;51.890;8.970;2023-04-25T12:57:19;98808.00;;;6.90
18782;BMP180;9519;51.890;8.970;2023-04-25T13:02:22;98832.00;;;7.10
18782;BMP180;9519;51.890;8.970;2023-04-25T13:07:24;98850.00;;;7.30
18782;BMP180;9519;51.890;8.970;2023-04-25T13:12:26;98870.00;;;7.60
18782;BMP180;9519;51.890;8.970;2023-04-25T13:17:30;98850.00;;;7.80
18782;BMP180;9519;51.890;8.970;2023-04-25T13:22:32;98853.00;;;8.20
18782;BMP180;9519;51.890;8.970;2023-04-25T13:27:37;98876.00;;;8.60
18782;BMP180;9519;51.890;8.970;2023-04-25T13:32:42;98874.00;;;9.00
18782;BMP180;9519;51.890;8.970;2023-04-25T13:37:44;98874.00;;;9.30
18782;BMP180;9519;51.890;8.970;2023-04-25T13:42:46;98814.00;;;9.10
18782;BMP180;9519;51.890;8.970;2023-04-25T13:47:50;98844.00;;;9.00
18782;BMP180;9519;51.890;8.970;2023-04-25T13:52:52;98848.00;;;9.10
18782;BMP180;9519;51.890;8.970;2023-04-25T13:57:54;98849.00;;;9.00
18782;BMP180;9519;51.890;8.970;2023-04-25T14:02:57;98880.00;;;8.80
18782;BMP180;9519;51.890;8.970;2023-04-25T14:08:00;98849.00;;;8.00
18782;BMP180;9519;51.890;8.970;2023-04-25T14:13:02;98829.00;;;7.20
18782;BMP180;9519;51.890;8.970;2023-04-25T14:18:06;98830.00;;;6.70
18782;BMP180;9519;51.890;8.970;2023-04-25T14:23:08;98810.00;;;6.40
18782;BMP180;9519;51.890;8.970;2023-04-25T14:28:10;98804.00;;;6.30
18782;BMP180;9519;51.890;8.970;2023-04-25T14:33:14;98835.00;;;6.40
18782;BMP180;9519;51.890;8.970;2023-04-25T14:38:16;98815.00;;;6.70
18782;BMP180;9519;51.890;8.970;2023-04-25T14:43:18;98906.00;;;7.20
18782;BMP180;9519;51.890;8.970;2023-04-25T14:48:21;98921.00;;;7.90
18782;BMP180;9519;51.890;8.970;2023-04-25T14:53:24;98923.00;;;8.60
18782;BMP180;9519;51.890;8.970;2023-04-25T14:58:26;98934.00;;;9.20
18782;BMP180;9519;51.890;8.970;2023-04-25T15:03:30;98914.00;;;9.20
18782;BMP180;9519;51.890;8.970;2023-04-25T15:08:32;98869.00;;;9.20
18782;BMP180;9519;51.890;8.970;2023-04-25T15:13:34;98925.00;;;9.10
18782;BMP180;9519;51.890;8.970;2023-04-25T15:18:38;98902.00;;;8.80
18782;BMP180;9519;51.890;8.970;2023-04-25T15:23:40;98869.00;;;8.70
18782;BMP180;9519;51.890;8.970;2023-04-25T15:28:42;98902.00;;;8.60
18782;BMP180;9519;51.890;8.970;2023-04-25T15:33:45;98902.00;;;8.40
18782;BMP180;9519;51.890;8.970;2023-04-25T15:38:48;98874.00;;;8.20
18782;BMP180;9519;51.890;8.970;2023-04-25T15:43:52;98885.00;;;8.10
18782;BMP180;9519;51.890;8.970;2023-04-25T15:48:55;98883.00;;;8.10
18782;BMP180;9519;51.890;8.970;2023-04-25T15:53:57;98884.00;;;8.10
18782;BMP180;9519;51.890;8.970;2023-04-25T15:59:00;98878.00;;;8.20
18782;BMP180;9519;51.890;8.970;2023-04-25T16:04:04;98905.00;;;8.20
18782;BMP180;9519;51.890;8.970;2023-04-25T16:09:07;98921.00;;;8.00
18782;BMP180;9519;51.890;8.970;2023-04-25T16:14:10;98915.00;;;7.70
18782;BMP180;9519;51.890;8.970;2023-04-25T16:19:13;98882.00;;;7.50
18782;BMP180;9519;51.890;8.970;2023-04-25T16:24:15;98909.00;;;7.50
18782;BMP180;9519;51.890;8.970;2023-04-25T16:29:17;98948.00;;;7.50
18782;BMP180;9519;51.890;8.970;2023-04-25T16:34:21;98899.00;;;7.50
18782;BMP180;9519;51.890;8.970;2023-04-25T16:39:24;98927.00;;;7.40
18782;BMP180;9519;51.890;8.970;2023-04-25T16:44:26;98885.00;;;7.30
18782;BMP180;9519;51.890;8.970;2023-04-25T16:49:29;98915.00;;;7.20
18782;BMP180;9519;51.890;8.970;2023-04-25T16:54:31;98899.00;;;7.10
18782;BMP180;9519;51.890;8.970;2023-04-25T17:05:53;98925.00;;;6.80
18782;BMP180;9519;51.890;8.970;2023-04-25T17:10:56;98865.00;;;6.50
18782;BMP180;9519;51.890;8.970;2023-04-25T17:15:59;98890.00;;;6.40
18782;BMP180;9519;51.890;8.970;2023-04-25T17:21:03;98902.00;;;6.30
18782;BMP180;9519;51.890;8.970;2023-04-25T17:26:09;98876.00;;;6.10
18782;BMP180;9519;51.890;8.970;2023-04-25T17:31:12;98858.00;;;6.00
18782;BMP180;9519;51.890;8.970;2023-04-25T17:36:15;98858.00;;;5.80
18782;BMP180;9519;51.890;8.970;2023-04-25T17:41:18;98902.00;;;5.70
18782;BMP180;9519;51.890;8.970;2023-04-25T17:46:20;98922.00;;;5.60
18782;BMP180;9519;51.890;8.970;2023-04-25T17:51:24;98903.00;;;5.60
18782;BMP180;9519;51.890;8.970;2023-04-25T17:56:26;98913.00;;;5.70
18782;BMP180;9519;51.890;8.970;2023-04-25T18:01:28;98940.00;;;5.70
18782;BMP180;9519;51.890;8.970;2023-04-25T18:06:32;98931.00;;;5.70
18782;BMP180;9519;51.890;8.970;2023-04-25T18:11:34;98985.00;;;5.80
18782;BMP180;9519;51.890;8.970;2023-04-25T18:16:36;98968.00;;;5.80
18782;BMP180;9519;51.890;8.970;2023-04-25T18:21:40;98979.00;;;5.80
18782;BMP180;9519;51.890;8.970;2023-04-25T18:26:43;98985.00;;;5.80
18782;BMP180;9519;51.890;8.970;2023-04-25T18:31:46;99018.00;;;5.70
18782;BMP180;9519;51.890;8.970;2023-04-25T18:36:50;98983.00;;;5.70
18782;BMP180;9519;51.890;8.970;2023-04-25T18:41:55;98976.00;;;5.60
18782;BMP180;9519;51.890;8.970;2023-04-25T18:46:58;98978.00;;;5.60
18782;BMP180;9519;51.890;8.970;2023-04-25T18:52:02;98990.00;;;5.50
18782;BMP180;9519;51.890;8.970;2023-04-25T18:57:05;98993.00;;;5.40
18782;BMP180;9519;51.890;8.970;2023-04-25T19:02:07;99029.00;;;5.40
18782;BMP180;9519;51.890;8.970;2023-04-25T19:07:11;98977.00;;;5.30
18782;BMP180;9519;51.890;8.970;2023-04-25T19:12:14;98969.00;;;5.30
18782;BMP180;9519;51.890;8.970;2023-04-25T19:17:16;99014.00;;;5.30
18782;BMP180;9519;51.890;8.970;2023-04-25T19:22:20;99003.00;;;5.20
18782;BMP180;9519;51.890;8.970;2023-04-25T19:27:22;99037.00;;;5.20
18782;BMP180;9519;51.890;8.970;2023-04-25T19:32:26;99030.00;;;5.30
18782;BMP180;9519;51.890;8.970;2023-04-25T19:37:32;99055.00;;;5.30
18782;BMP180;9519;51.890;8.970;2023-04-25T19:42:35;99069.00;;;5.30
18782;BMP180;9519;51.890;8.970;2023-04-25T19:47:37;99084.00;;;5.40
18782;BMP180;9519;51.890;8.970;2023-04-25T19:52:41;99090.00;;;5.40
18782;BMP180;9519;51.890;8.970;2023-04-25T19:57:43;99085.00;;;5.40
18782;BMP180;9519;51.890;8.970;2023-04-25T20:02:45;99099.00;;;5.40
18782;BMP180;9519;51.890;8.970;2023-04-25T20:07:48;99094.00;;;5.40
18782;BMP180;9519;51.890;8.970;2023-04-25T20:12:51;99090.00;;;5.30
18782;BMP180;9519;51.890;8.970;2023-04-25T20:17:54;99076.00;;;5.20
18782;BMP180;9519;51.890;8.970;2023-04-25T20:22:57;99067.00;;;5.20
18782;BMP180;9519;51.890;8.970;2023-04-25T20:27:59;99076.00;;;5.10
18782;BMP180;9519;51.890;8.970;2023-04-25T20:33:02;99078.00;;;5.00
18782;BMP180;9519;51.890;8.970;2023-04-25T20:38:05;99061.00;;;5.00
18782;BMP180;9519;51.890;8.970;2023-04-25T20:43:08;99063.00;;;5.00
18782;BMP180;9519;51.890;8.970;2023-04-25T20:48:12;99057.00;;;5.00
18782;BMP180;9519;51.890;8.970;2023-04-25T20:53:16;99013.00;;;5.00
18782;BMP180;9519;51.890;8.970;2023-04-25T20:58:18;99048.00;;;5.00
18782;BMP180;9519;51.890;8.970;2023-04-25T21:03:20;99078.00;;;5.00
18782;BMP180;9519;51.890;8.970;2023-04-25T21:08:24;99077.00;;;5.00
18782;BMP180;9519;51.890;8.970;2023-04-25T21:13:26;99094.00;;;5.00
18782;BMP180;9519;51.890;8.970;2023-04-25T21:18:28;99080.00;;;5.00
18782;BMP180;9519;51.890;8.970;2023-04-25T21:23:33;99076.00;;;4.90
18782;BMP180;9519;51.890;8.970;2023-04-25T21:28:35;99054.00;;;4.90
18782;BMP180;9519;51.890;8.970;2023-04-25T21:33:37;99083.00;;;4.80
18782;BMP180;9519;51.890;8.970;2023-04-25T21:38:40;99075.00;;;4.70
18782;BMP180;9519;51.890;8.970;2023-04-25T21:43:42;99021.00;;;4.60
18782;BMP180;9519;51.890;8.970;2023-04-25T21:48:44;99025.00;;;4.60
18782;BMP180;9519;51.890;8.970;2023-04-25T21:53:48;99037.00;;;4.50
18782;BMP180;9519;51.890;8.970;2023-04-25T21:58:50;99040.00;;;4.40
18782;BMP180;9519;51.890;8.970;2023-04-25T22:03:52;99041.00;;;4.30
18782;BMP180;9519;51.890;8.970;2023-04-25T22:08:56;99035.00;;;4.20
18782;BMP180;9519;51.890;8.970;2023-04-25T22:13:58;99066.00;;;4.20
18782;BMP180;9519;51.890;8.970;2023-04-25T22:19:01;99039.00;;;4.10
18782;BMP180;9519;51.890;8.970;2023-04-25T22:24:05;99072.00;;;4.00
18782;BMP180;9519;51.890;8.970;2023-04-25T22:29:08;99020.00;;;3.90
18782;BMP180;9519;51.890;8.970;2023-04-25T22:34:10;99035.00;;;3.90
18782;BMP180;9519;51.890;8.970;2023-04-25T22:39:14;99024.00;;;3.80
18782;BMP180;9519;51.890;8.970;2023-04-25T22:44:16;99054.00;;;3.80
18782;BMP180;9519;51.890;8.970;2023-04-25T22:49:19;99061.00;;;3.70
18782;BMP180;9519;51.890;8.970;2023-04-25T22:54:22;99052.00;;;3.60
18782;BMP180;9519;51.890;8.970;2023-04-25T22:59:24;99060.00;;;3.60
18782;BMP180;9519;51.890;8.970;2023-04-25T23:04:26;99055.00;;;3.50
18782;BMP180;9519;51.890;8.970;2023-04-25T23:09:30;99051.00;;;3.50
18782;BMP180;9519;51.890;8.970;2023-04-25T23:14:32;99050.00;;;3.40
18782;BMP180;9519;51.890;8.970;2023-04-25T23:19:34;99070.00;;;3.40
18782;BMP180;9519;51.890;8.970;2023-04-25T23:24:38;99042.00;;;3.30
18782;BMP180;9519;51.890;8.970;2023-04-25T23:29:40;99056.00;;;3.20
18782;BMP180;9519;51.890;8.970;2023-04-25T23:34:42;99034.00;;;3.10
18782;BMP180;9519;51.890;8.970;2023-04-25T23:39:48;98963.00;;;3.10
18782;BMP180;9519;51.890;8.970;2023-04-25T23:44:50;98988.00;;;3.00
18782;BMP180;9519;51.890;8.970;2023-04-25T23:49:53;99021.00;;;3.00
18782;BMP180;9519;51.890;8.970;2023-04-25T23:54:56;98992.00;;;2.90
18782;BMP180;9519;51.890;8.970;2023-04-25T23:59:58;98992.00;;;2.80
